OMAA/AUH METAR and TAF weather

Enter ICAO airport designator
Station Type Date Time Source
OMAA METAR 2019/02/21 12:00 UTC NOAA

OMAA 211200Z 32009KT CAVOK 21/10 Q1019 NOSIG


Station Type Date Time Source
OMAA Decoded METAR 2019/02/21 12:00 UTC NOAA

Abu Dhabi International Airport, United Arab Emirates (OMAA) 24-26N 054-39E 27M
Feb 21, 2019 - 07:00 AM EST / 2019.02.21 1200 UTC
Wind: from the NW (320 degrees) at 10 MPH (9 KT):0
Visibility: greater than 7 mile(s):0
Temperature: 69 F (21 C)
Dew Point: 50 F (10 C)
Relative Humidity: 49%
Pressure (altimeter): 30.09 in. Hg (1019 hPa)
ob: OMAA 211200Z 32009KT CAVOK 21/10 Q1019 NOSIG
cycle: 12

Station Type Date Time Source
OMAA TAF 2019/02/21 12:06 UTC NOAA

TAF TAF OMAA 211100Z 2112/2218 31010KT 8000 FEW040
BECMG 2120/2121 VRB02KT
BECMG 2208/2210 32010KT


Example: see airport list